createdAt,value
2023-08-13T00:02:23.119Z,9.20
2023-08-13T00:04:50.715Z,9.50
2023-08-13T00:07:18.342Z,9.30
2023-08-13T00:09:45.931Z,9.30
2023-08-13T00:12:13.787Z,8.90
2023-08-13T00:14:41.629Z,10.10
2023-08-13T00:17:09.505Z,8.90
2023-08-13T00:19:37.085Z,8.40
2023-08-13T00:22:08.059Z,9.30
2023-08-13T00:24:36.082Z,8.90
2023-08-13T00:27:03.673Z,9.00
2023-08-13T00:29:32.924Z,9.10
2023-08-13T00:32:00.614Z,8.80
2023-08-13T00:34:28.308Z,9.70
2023-08-13T00:36:55.991Z,9.20
2023-08-13T00:39:23.740Z,9.70
2023-08-13T00:41:51.319Z,9.40
2023-08-13T00:44:18.919Z,9.50
2023-08-13T00:46:46.778Z,9.60
2023-08-13T00:49:14.394Z,9.50
2023-08-13T00:51:41.995Z,10.00
2023-08-13T00:54:09.620Z,8.80
2023-08-13T00:56:37.618Z,9.60
2023-08-13T00:59:05.912Z,8.80
2023-08-13T01:01:33.670Z,9.20
2023-08-13T01:04:01.424Z,8.60
2023-08-13T01:06:29.166Z,9.20
2023-08-13T01:08:56.793Z,9.30
2023-08-13T01:11:24.380Z,9.20
2023-08-13T01:13:51.957Z,9.30
2023-08-13T01:16:19.579Z,8.60
2023-08-13T01:18:47.496Z,8.60
2023-08-13T01:21:15.093Z,9.20
2023-08-13T01:23:42.680Z,9.00
2023-08-13T01:26:10.339Z,8.70
2023-08-13T01:28:37.970Z,8.90
2023-08-13T01:31:05.687Z,9.50
2023-08-13T01:33:33.330Z,8.70
2023-08-13T01:36:00.925Z,9.60
2023-08-13T01:38:29.840Z,9.10
2023-08-13T01:40:57.438Z,9.50
2023-08-13T01:43:25.069Z,9.40
2023-08-13T01:45:52.777Z,9.10
2023-08-13T01:48:20.383Z,8.10
2023-08-13T01:50:47.948Z,8.90
2023-08-13T01:53:16.037Z,9.10
2023-08-13T01:55:43.654Z,10.00
2023-08-13T01:58:11.845Z,9.10
2023-08-13T02:00:39.421Z,9.10
2023-08-13T02:03:07.015Z,8.80
2023-08-13T02:05:34.724Z,9.50
2023-08-13T02:08:02.354Z,10.00
2023-08-13T02:10:30.007Z,9.70
2023-08-13T02:12:57.689Z,9.10
2023-08-13T02:15:25.284Z,9.70
2023-08-13T02:17:52.921Z,9.70
2023-08-13T02:20:20.546Z,9.10
2023-08-13T02:22:48.273Z,9.20
2023-08-13T02:25:15.920Z,10.20
2023-08-13T02:27:43.561Z,9.80
2023-08-13T02:30:11.158Z,9.60
2023-08-13T02:32:38.793Z,9.70
2023-08-13T02:35:06.702Z,9.70
2023-08-13T02:37:34.353Z,10.10
2023-08-13T02:40:02.079Z,9.60
2023-08-13T02:42:29.825Z,9.30
2023-08-13T02:44:57.422Z,9.20
2023-08-13T02:47:25.010Z,9.80
2023-08-13T02:49:52.608Z,9.50
2023-08-13T02:52:20.270Z,9.80
2023-08-13T02:54:47.883Z,9.80
2023-08-13T02:57:15.469Z,9.90
2023-08-13T02:59:43.063Z,9.60
2023-08-13T03:02:11.204Z,9.80
2023-08-13T03:04:38.985Z,9.00
2023-08-13T03:07:06.570Z,9.70
2023-08-13T03:09:34.215Z,9.40
2023-08-13T03:12:01.771Z,9.10
2023-08-13T03:14:29.395Z,9.20
2023-08-13T03:16:57.002Z,9.60
2023-08-13T03:19:24.583Z,9.50
2023-08-13T03:21:52.184Z,9.00
2023-08-13T03:24:19.772Z,9.40
2023-08-13T03:26:47.364Z,10.20
2023-08-13T03:29:15.022Z,9.60
2023-08-13T03:31:42.725Z,9.20
2023-08-13T03:34:10.383Z,9.90
2023-08-13T03:36:37.950Z,9.60
2023-08-13T03:39:05.552Z,10.30
2023-08-13T03:41:33.145Z,10.00
2023-08-13T03:44:00.785Z,10.70
2023-08-13T03:46:28.451Z,9.90
2023-08-13T03:48:56.026Z,9.30
2023-08-13T03:51:23.676Z,9.20
2023-08-13T03:53:51.292Z,10.20
2023-08-13T03:56:18.898Z,10.00
2023-08-13T03:58:46.770Z,10.10
2023-08-13T04:01:14.483Z,9.50
2023-08-13T04:03:42.222Z,9.70
2023-08-13T04:06:09.936Z,10.60
2023-08-13T04:08:37.576Z,10.20
2023-08-13T04:11:05.259Z,9.90
2023-08-13T04:13:32.857Z,10.20
2023-08-13T04:16:00.456Z,9.60
2023-08-13T04:18:28.093Z,9.80
2023-08-13T04:20:55.681Z,9.60
2023-08-13T04:23:23.307Z,9.30
2023-08-13T04:25:50.885Z,9.60
2023-08-13T04:28:18.524Z,10.20
2023-08-13T04:30:46.129Z,10.50
2023-08-13T04:33:13.740Z,9.90
2023-08-13T04:35:41.357Z,10.10
2023-08-13T04:38:08.991Z,10.00
2023-08-13T04:40:36.587Z,10.80
2023-08-13T04:43:04.183Z,9.40
2023-08-13T04:45:31.812Z,9.60
2023-08-13T04:47:59.414Z,10.00
2023-08-13T04:50:27.042Z,9.80
2023-08-13T04:52:54.615Z,9.80
2023-08-13T04:55:22.218Z,10.30
2023-08-13T04:57:49.788Z,11.00
2023-08-13T05:00:17.374Z,10.00
2023-08-13T05:02:45.025Z,10.70
2023-08-13T05:05:12.635Z,11.00
2023-08-13T05:07:40.237Z,10.80
2023-08-13T05:10:07.856Z,11.40
2023-08-13T05:12:35.462Z,11.10
2023-08-13T05:15:03.108Z,12.00
2023-08-13T05:17:30.785Z,11.90
2023-08-13T05:19:58.417Z,11.10
2023-08-13T05:22:26.024Z,10.30
2023-08-13T05:24:53.774Z,10.90
2023-08-13T05:27:21.379Z,10.60
2023-08-13T05:29:48.953Z,10.80
2023-08-13T05:32:18.178Z,10.50
2023-08-13T05:34:45.794Z,9.40
2023-08-13T05:37:14.336Z,9.30
2023-08-13T05:39:41.983Z,9.20
2023-08-13T05:42:09.573Z,9.60
2023-08-13T05:44:37.181Z,9.40
2023-08-13T05:47:04.768Z,10.00
2023-08-13T05:49:32.360Z,9.70
2023-08-13T05:52:00.037Z,10.10
2023-08-13T05:54:27.627Z,9.80
2023-08-13T05:56:55.576Z,9.80
2023-08-13T05:59:23.172Z,10.60
2023-08-13T06:01:50.771Z,9.70
2023-08-13T06:04:18.397Z,9.90
2023-08-13T06:06:46.004Z,8.80
2023-08-13T06:09:13.695Z,9.10
2023-08-13T06:11:41.362Z,8.60
2023-08-13T06:14:08.930Z,8.00
2023-08-13T06:16:36.567Z,8.60
2023-08-13T06:19:04.224Z,7.90
2023-08-13T06:21:32.077Z,8.10
2023-08-13T06:24:00.077Z,7.70
2023-08-13T06:26:27.685Z,8.00
2023-08-13T06:28:55.282Z,7.30
2023-08-13T06:33:56.379Z,7.50
2023-08-13T06:36:24.006Z,6.60
2023-08-13T06:38:51.616Z,7.10
2023-08-13T06:41:19.221Z,6.20
2023-08-13T06:43:46.825Z,7.10
2023-08-13T06:46:17.143Z,5.90
2023-08-13T06:48:45.287Z,5.90
2023-08-13T06:51:13.285Z,6.40
2023-08-13T06:53:41.045Z,5.70
2023-08-13T06:56:08.813Z,5.90
2023-08-13T06:58:36.542Z,6.30
2023-08-13T07:01:05.213Z,5.60
2023-08-13T07:03:34.945Z,5.50
2023-08-13T07:06:03.730Z,5.40
2023-08-13T07:08:31.428Z,4.90
2023-08-13T07:11:00.670Z,5.40
2023-08-13T07:13:31.691Z,4.70
2023-08-13T07:15:59.810Z,5.40
2023-08-13T07:18:34.308Z,5.30
2023-08-13T07:21:02.752Z,5.00
2023-08-13T07:23:30.742Z,4.80
2023-08-13T07:25:58.435Z,5.30
2023-08-13T07:28:27.722Z,4.90
2023-08-13T07:30:57.218Z,5.20
2023-08-13T07:33:25.537Z,5.10
2023-08-13T07:35:54.336Z,5.10
2023-08-13T07:38:22.025Z,5.00
2023-08-13T07:40:49.656Z,4.90
2023-08-13T07:43:17.382Z,5.00
2023-08-13T07:45:45.163Z,4.80
2023-08-13T07:48:12.948Z,4.80
2023-08-13T07:50:41.487Z,4.60
2023-08-13T07:53:09.196Z,4.70
2023-08-13T07:55:37.303Z,4.70
2023-08-13T07:58:04.894Z,4.70
2023-08-13T08:00:32.566Z,4.40
2023-08-13T08:03:01.000Z,4.80
2023-08-13T08:05:28.766Z,4.40
2023-08-13T08:07:57.092Z,4.30
2023-08-13T08:10:25.040Z,4.40
2023-08-13T08:12:52.637Z,4.20
2023-08-13T08:15:22.627Z,3.70
2023-08-13T08:17:50.318Z,4.60
2023-08-13T08:20:18.020Z,4.20
2023-08-13T08:22:45.581Z,4.10
2023-08-13T08:25:13.242Z,4.40
2023-08-13T08:27:40.925Z,4.30
2023-08-13T08:30:08.584Z,4.40
2023-08-13T08:32:36.718Z,4.40
2023-08-13T08:35:04.894Z,4.60
2023-08-13T08:37:40.068Z,4.20
2023-08-13T08:40:07.696Z,4.30
2023-08-13T08:42:35.271Z,4.50
2023-08-13T08:45:02.885Z,4.50
2023-08-13T08:47:30.607Z,4.60
2023-08-13T08:49:58.267Z,4.40
2023-08-13T08:52:26.207Z,4.70
2023-08-13T08:54:54.514Z,4.50
2023-08-13T08:57:22.216Z,4.10
2023-08-13T08:59:50.002Z,4.20
2023-08-13T09:02:18.263Z,4.10
2023-08-13T09:04:46.226Z,4.60
2023-08-13T09:07:14.010Z,4.30
2023-08-13T09:09:44.798Z,4.30
2023-08-13T09:12:13.051Z,4.20
2023-08-13T09:14:41.008Z,4.30
2023-08-13T09:17:08.740Z,4.70
2023-08-13T09:19:36.395Z,4.40
2023-08-13T09:22:04.584Z,4.10
2023-08-13T09:24:32.774Z,4.00
2023-08-13T09:27:00.358Z,5.00
2023-08-13T09:29:28.009Z,4.00
2023-08-13T09:31:55.632Z,4.10
2023-08-13T09:34:23.330Z,4.00
2023-08-13T09:36:50.924Z,4.00
2023-08-13T09:39:18.514Z,4.10
2023-08-13T09:41:46.263Z,4.10
2023-08-13T09:44:15.344Z,3.40
2023-08-13T09:46:43.243Z,3.80
2023-08-13T09:49:13.407Z,3.60
2023-08-13T09:51:43.556Z,3.30
2023-08-13T09:56:43.344Z,3.30
2023-08-13T09:59:13.068Z,3.50
2023-08-13T10:01:50.332Z,3.00
2023-08-13T10:04:18.316Z,3.20
2023-08-13T10:06:55.902Z,3.30
2023-08-13T10:09:24.777Z,3.30
2023-08-13T10:11:52.491Z,3.70
2023-08-13T10:14:20.470Z,3.50
2023-08-13T10:16:48.567Z,3.30
2023-08-13T10:19:25.632Z,3.30
2023-08-13T10:21:56.989Z,3.10
2023-08-13T10:24:25.604Z,3.20
2023-08-13T10:26:53.318Z,3.30
2023-08-13T10:29:21.283Z,3.20
2023-08-13T10:31:53.910Z,2.90
2023-08-13T10:34:22.109Z,3.20
2023-08-13T10:36:53.467Z,3.10
2023-08-13T10:39:22.514Z,2.90
2023-08-13T10:41:50.689Z,3.10
2023-08-13T10:44:18.548Z,2.80
2023-08-13T10:46:46.409Z,2.90
2023-08-13T10:49:14.913Z,2.60
2023-08-13T10:51:43.873Z,3.00
2023-08-13T10:54:11.522Z,2.90
2023-08-13T10:56:39.121Z,2.90
2023-08-13T10:59:06.721Z,2.80
2023-08-13T11:01:34.448Z,3.10
2023-08-13T11:04:02.200Z,2.90
2023-08-13T11:06:29.965Z,3.00
2023-08-13T11:08:57.816Z,2.90
2023-08-13T11:11:25.595Z,2.80
2023-08-13T11:13:54.321Z,2.70
2023-08-13T11:16:22.039Z,2.60
2023-08-13T11:18:51.728Z,2.80
2023-08-13T11:21:19.604Z,2.10
2023-08-13T11:23:47.195Z,2.90
2023-08-13T11:26:15.932Z,2.50
2023-08-13T11:28:43.550Z,2.20
2023-08-13T11:31:11.122Z,2.50
2023-08-13T11:33:38.960Z,2.30
2023-08-13T11:36:06.656Z,2.40
2023-08-13T11:38:34.329Z,2.40
2023-08-13T11:41:01.980Z,2.30
2023-08-13T11:43:30.693Z,2.40
2023-08-13T11:45:58.660Z,2.40
2023-08-13T11:48:31.074Z,2.00
2023-08-13T11:51:17.157Z,2.50
2023-08-13T11:53:47.874Z,2.60
2023-08-13T11:56:17.372Z,2.60
2023-08-13T11:58:46.208Z,2.70
2023-08-13T12:01:14.107Z,2.50
2023-08-13T12:03:41.877Z,2.70
2023-08-13T12:06:09.853Z,2.50
2023-08-13T12:08:37.932Z,2.30
2023-08-13T12:11:07.062Z,2.20
2023-08-13T12:13:40.056Z,2.50
2023-08-13T12:16:08.183Z,2.30
2023-08-13T12:18:36.625Z,2.50
2023-08-13T12:21:05.776Z,2.30
2023-08-13T12:23:35.182Z,2.70
2023-08-13T12:26:11.491Z,2.40
2023-08-13T12:28:41.717Z,2.30
2023-08-13T12:31:10.064Z,2.70
2023-08-13T12:33:37.870Z,2.50
2023-08-13T12:36:05.580Z,2.40
2023-08-13T12:38:37.664Z,2.20
2023-08-13T12:41:05.975Z,2.30
2023-08-13T12:43:33.600Z,4.30
2023-08-13T12:46:01.406Z,2.60
2023-08-13T12:48:29.009Z,2.60
2023-08-13T12:50:57.300Z,2.50
2023-08-13T12:53:25.037Z,2.40
2023-08-13T12:55:52.647Z,2.60
2023-08-13T12:58:20.289Z,2.40
2023-08-13T13:00:47.885Z,2.20
2023-08-13T13:03:15.454Z,2.30
2023-08-13T13:05:43.057Z,2.20
2023-08-13T13:08:11.062Z,2.60
2023-08-13T13:10:38.685Z,2.20
2023-08-13T13:13:08.080Z,2.40
2023-08-13T13:15:36.649Z,2.30
2023-08-13T13:18:04.398Z,2.60
2023-08-13T13:20:32.149Z,2.30
2023-08-13T13:22:59.724Z,1.90
2023-08-13T13:25:27.431Z,2.20
2023-08-13T13:27:55.116Z,2.30
2023-08-13T13:30:23.649Z,2.20
2023-08-13T13:32:51.250Z,2.40
2023-08-13T13:35:18.823Z,2.40
2023-08-13T13:37:46.414Z,2.30
2023-08-13T13:40:13.979Z,2.60
2023-08-13T13:42:41.629Z,2.00
2023-08-13T13:45:09.343Z,2.40
2023-08-13T13:47:37.019Z,2.40
2023-08-13T13:50:05.329Z,2.00
2023-08-13T13:52:33.278Z,2.40
2023-08-13T13:55:01.111Z,2.40
2023-08-13T13:57:28.890Z,2.60
2023-08-13T13:59:56.676Z,2.30
2023-08-13T14:02:24.445Z,2.50
2023-08-13T14:04:52.228Z,2.40
2023-08-13T14:07:19.972Z,2.60
2023-08-13T14:09:48.899Z,2.50
2023-08-13T14:12:16.826Z,2.70
2023-08-13T14:14:45.986Z,2.60
2023-08-13T14:17:13.664Z,2.20
2023-08-13T14:19:41.371Z,2.50
2023-08-13T14:22:09.252Z,2.40
2023-08-13T14:24:37.087Z,2.40
2023-08-13T14:27:04.784Z,2.30
2023-08-13T14:29:32.475Z,2.70
2023-08-13T14:32:00.206Z,2.10
2023-08-13T14:34:27.847Z,2.50
2023-08-13T14:36:55.448Z,2.30
2023-08-13T14:39:23.050Z,2.30
2023-08-13T14:41:50.707Z,2.40
2023-08-13T14:44:18.392Z,2.20
2023-08-13T14:46:46.596Z,2.70
2023-08-13T14:49:14.241Z,2.90
2023-08-13T14:51:43.967Z,2.50
2023-08-13T14:54:13.369Z,2.60
2023-08-13T14:56:40.996Z,2.10
2023-08-13T14:59:08.595Z,2.40
2023-08-13T15:01:36.239Z,2.40
2023-08-13T15:04:04.060Z,2.10
2023-08-13T15:06:31.801Z,2.20
2023-08-13T15:08:59.381Z,2.50
2023-08-13T15:11:27.338Z,2.70
2023-08-13T15:13:54.921Z,2.90
2023-08-13T15:16:22.752Z,2.80
2023-08-13T15:18:50.408Z,2.90
2023-08-13T15:21:18.043Z,2.70
2023-08-13T15:23:45.661Z,3.00
2023-08-13T15:26:13.335Z,2.30
2023-08-13T15:28:40.921Z,2.20
2023-08-13T15:31:10.943Z,2.40
2023-08-13T15:33:41.054Z,2.50
2023-08-13T15:36:08.872Z,2.70
2023-08-13T15:38:36.645Z,2.20
2023-08-13T15:41:04.409Z,2.50
2023-08-13T15:43:32.280Z,2.50
2023-08-13T15:45:59.867Z,2.60
2023-08-13T15:48:28.037Z,2.30
2023-08-13T15:50:56.499Z,2.70
2023-08-13T15:53:24.202Z,2.50
2023-08-13T15:55:52.606Z,2.30
2023-08-13T15:58:25.209Z,2.60
2023-08-13T16:01:00.622Z,2.30
2023-08-13T16:03:29.963Z,2.50
2023-08-13T16:05:57.888Z,2.80
2023-08-13T16:08:25.645Z,2.20
2023-08-13T16:10:54.188Z,2.40
2023-08-13T16:13:24.912Z,2.40
2023-08-13T16:15:55.762Z,2.90
2023-08-13T16:18:23.681Z,2.70
2023-08-13T16:20:52.637Z,2.50
2023-08-13T16:23:21.999Z,2.50
2023-08-13T16:25:49.960Z,2.70
2023-08-13T16:28:19.743Z,2.60
2023-08-13T16:30:48.254Z,2.80
2023-08-13T16:33:16.915Z,3.10
2023-08-13T16:35:45.276Z,2.90
2023-08-13T16:38:15.630Z,2.50
2023-08-13T16:40:44.340Z,2.80
2023-08-13T16:43:14.371Z,2.90
2023-08-13T16:45:42.071Z,2.60
2023-08-13T16:48:09.708Z,2.60
2023-08-13T16:50:37.435Z,2.80
2023-08-13T16:53:05.069Z,3.90
2023-08-13T16:55:32.658Z,3.00
2023-08-13T16:58:00.281Z,2.80
2023-08-13T17:00:28.386Z,2.60
2023-08-13T17:02:56.041Z,2.90
2023-08-13T17:05:23.795Z,2.60
2023-08-13T17:07:51.796Z,2.80
2023-08-13T17:10:19.719Z,3.00
2023-08-13T17:12:48.042Z,2.80
2023-08-13T17:15:23.962Z,2.80
2023-08-13T17:17:53.022Z,3.50
2023-08-13T17:20:22.333Z,3.20
2023-08-13T17:22:50.419Z,2.80
2023-08-13T17:25:18.037Z,3.00
2023-08-13T17:27:45.740Z,3.30
2023-08-13T17:30:13.328Z,3.20
2023-08-13T17:32:40.919Z,3.30
2023-08-13T17:35:08.692Z,3.70
2023-08-13T17:37:37.047Z,3.30
2023-08-13T17:40:05.240Z,3.30
2023-08-13T17:42:33.046Z,3.60
2023-08-13T17:45:00.654Z,4.00
2023-08-13T17:47:30.215Z,5.10
2023-08-13T17:49:58.690Z,5.80
2023-08-13T17:52:28.735Z,5.90
2023-08-13T17:54:57.666Z,5.70
2023-08-13T17:57:25.353Z,5.70
2023-08-13T17:59:55.869Z,5.00
2023-08-13T18:02:25.460Z,4.90
2023-08-13T18:07:27.529Z,6.20
2023-08-13T18:09:56.569Z,6.50
2023-08-13T18:12:24.504Z,6.50
2023-08-13T18:14:52.179Z,5.70
2023-08-13T18:17:20.291Z,5.70
2023-08-13T18:19:48.159Z,6.10
2023-08-13T18:22:16.373Z,6.40
2023-08-13T18:24:44.717Z,5.70
2023-08-13T18:27:12.495Z,5.60
2023-08-13T18:29:40.788Z,5.60
2023-08-13T18:32:08.878Z,6.00
2023-08-13T18:34:36.656Z,6.50
2023-08-13T18:37:04.426Z,7.70
2023-08-13T18:39:32.040Z,7.00
2023-08-13T18:41:59.978Z,6.40
2023-08-13T18:44:27.744Z,6.30
2023-08-13T18:46:55.363Z,6.20
2023-08-13T18:49:22.985Z,6.60
2023-08-13T18:51:50.795Z,6.70
2023-08-13T18:54:18.361Z,6.00
2023-08-13T18:56:45.961Z,5.90
2023-08-13T18:59:13.546Z,6.00
2023-08-13T19:01:41.123Z,7.10
2023-08-13T19:04:09.994Z,7.40
2023-08-13T19:06:37.685Z,7.00
2023-08-13T19:09:06.138Z,7.20
2023-08-13T19:11:33.719Z,7.80
2023-08-13T19:14:01.306Z,7.20
2023-08-13T19:16:29.069Z,6.50
2023-08-13T19:18:56.703Z,7.30
2023-08-13T19:21:24.322Z,7.00
2023-08-13T19:23:53.394Z,7.20
2023-08-13T19:26:23.025Z,7.60
2023-08-13T19:28:50.616Z,7.60
2023-08-13T19:31:18.210Z,7.60
2023-08-13T19:33:45.834Z,7.00
2023-08-13T19:36:13.468Z,7.20
2023-08-13T19:38:41.040Z,7.00
2023-08-13T19:41:08.631Z,7.20
2023-08-13T19:43:37.101Z,7.10
2023-08-13T19:46:04.711Z,7.30
2023-08-13T19:48:33.659Z,6.90
2023-08-13T19:51:02.418Z,6.80
2023-08-13T19:53:41.945Z,7.00
2023-08-13T19:56:10.918Z,7.00
2023-08-13T19:58:39.983Z,6.40
2023-08-13T20:01:10.010Z,6.40
2023-08-13T20:03:52.684Z,7.20
2023-08-13T20:06:24.815Z,6.70
2023-08-13T20:08:52.844Z,6.70
2023-08-13T20:11:20.556Z,6.60
2023-08-13T20:13:48.280Z,6.70
2023-08-13T20:16:17.338Z,7.20
2023-08-13T20:18:47.832Z,7.50
2023-08-13T20:21:20.610Z,7.40
2023-08-13T20:23:52.744Z,7.30
2023-08-13T20:26:22.791Z,7.00
2023-08-13T20:28:50.927Z,7.10
2023-08-13T20:31:35.542Z,7.60
2023-08-13T20:34:05.044Z,7.70
2023-08-13T20:36:41.321Z,6.80
2023-08-13T20:39:09.192Z,7.60
2023-08-13T20:41:37.990Z,7.30
2023-08-13T20:44:06.213Z,7.50
2023-08-13T20:46:34.062Z,7.40
2023-08-13T20:49:01.639Z,7.00
2023-08-13T20:51:29.233Z,6.90
2023-08-13T20:53:56.885Z,7.00
2023-08-13T20:56:24.488Z,6.70
2023-08-13T20:58:52.094Z,6.60
2023-08-13T21:01:19.699Z,6.90
2023-08-13T21:03:47.344Z,7.10
2023-08-13T21:06:14.932Z,6.60
2023-08-13T21:08:42.813Z,6.80
2023-08-13T21:11:10.863Z,6.40
2023-08-13T21:13:38.464Z,6.60
2023-08-13T21:16:06.050Z,6.90
2023-08-13T21:18:33.696Z,6.90
2023-08-13T21:21:01.302Z,6.80
2023-08-13T21:23:28.932Z,7.30
2023-08-13T21:25:56.608Z,7.00
2023-08-13T21:28:24.221Z,6.70
2023-08-13T21:30:51.819Z,6.60
2023-08-13T21:33:19.491Z,6.20
2023-08-13T21:35:47.107Z,6.90
2023-08-13T21:38:14.685Z,6.50
2023-08-13T21:40:42.265Z,6.60
2023-08-13T21:43:09.918Z,6.30
2023-08-13T21:45:37.565Z,6.50
2023-08-13T21:48:05.377Z,6.50
2023-08-13T21:50:33.258Z,7.00
2023-08-13T21:53:00.848Z,6.00
2023-08-13T21:55:28.469Z,6.00
2023-08-13T21:57:56.118Z,6.10
2023-08-13T22:00:23.760Z,5.90
2023-08-13T22:02:51.458Z,6.70
2023-08-13T22:05:19.180Z,6.30
2023-08-13T22:07:47.302Z,6.60
2023-08-13T22:10:14.870Z,6.70
2023-08-13T22:12:42.524Z,6.30
2023-08-13T22:15:10.197Z,6.20
2023-08-13T22:17:37.821Z,5.70
2023-08-13T22:20:06.534Z,6.00
2023-08-13T22:22:34.156Z,6.30
2023-08-13T22:25:01.776Z,5.90
2023-08-13T22:27:29.387Z,6.90
2023-08-13T22:29:56.955Z,5.70
2023-08-13T22:32:24.645Z,6.30
2023-08-13T22:34:52.361Z,6.50
2023-08-13T22:37:20.001Z,5.90
2023-08-13T22:39:47.614Z,6.20
2023-08-13T22:42:15.619Z,6.50
2023-08-13T22:44:43.444Z,6.50
2023-08-13T22:47:11.135Z,6.10
2023-08-13T22:49:39.394Z,6.10
2023-08-13T22:52:10.154Z,5.90
2023-08-13T22:54:37.851Z,5.90
2023-08-13T22:57:05.476Z,6.20
2023-08-13T22:59:33.090Z,6.10
2023-08-13T23:02:01.563Z,6.50
2023-08-13T23:04:29.265Z,6.20
2023-08-13T23:06:57.108Z,6.70
2023-08-13T23:09:24.771Z,6.70
2023-08-13T23:11:52.384Z,6.50
2023-08-13T23:14:20.017Z,6.50
2023-08-13T23:16:47.641Z,6.00
2023-08-13T23:19:15.228Z,6.50
2023-08-13T23:21:42.813Z,6.50
2023-08-13T23:24:11.042Z,6.50
2023-08-13T23:26:38.630Z,6.00
2023-08-13T23:29:06.581Z,6.10
2023-08-13T23:31:34.229Z,6.40
2023-08-13T23:34:01.899Z,6.00
2023-08-13T23:36:29.511Z,5.60
2023-08-13T23:38:57.097Z,5.80
2023-08-13T23:41:24.823Z,5.90
2023-08-13T23:43:53.868Z,5.70
2023-08-13T23:46:21.486Z,6.00
2023-08-13T23:48:49.066Z,6.10
2023-08-13T23:51:16.712Z,6.40
2023-08-13T23:53:44.336Z,6.40
2023-08-13T23:56:11.961Z,5.50
2023-08-13T23:58:39.522Z,6.20
